sensor_id;sensor_type;location;lat;lon;timestamp;temperature;humidity
16736;DHT22;17990;49.548;9.730;2023-09-19T00:00:16;15.50;99.90
16736;DHT22;17990;49.548;9.730;2023-09-19T00:02:46;15.40;99.90
16736;DHT22;17990;49.548;9.730;2023-09-19T00:05:13;15.50;99.90
16736;DHT22;17990;49.548;9.730;2023-09-19T00:07:40;15.40;99.90
16736;DHT22;17990;49.548;9.730;2023-09-19T00:10:07;15.40;99.90
16736;DHT22;17990;49.548;9.730;2023-09-19T00:12:35;15.50;99.90
16736;DHT22;17990;49.548;9.730;2023-09-19T00:15:02;15.50;99.90
16736;DHT22;17990;49.548;9.730;2023-09-19T00:17:29;15.60;99.90
16736;DHT22;17990;49.548;9.730;2023-09-19T00:19:58;15.70;99.90
16736;DHT22;17990;49.548;9.730;2023-09-19T00:22:39;15.70;99.90
16736;DHT22;17990;49.548;9.730;2023-09-19T00:25:07;15.80;99.90
16736;DHT22;17990;49.548;9.730;2023-09-19T00:27:34;15.80;99.90
16736;DHT22;17990;49.548;9.730;2023-09-19T00:30:00;15.90;99.90
16736;DHT22;17990;49.548;9.730;2023-09-19T00:32:29;15.80;99.90
16736;DHT22;17990;49.548;9.730;2023-09-19T00:34:58;15.90;99.90
16736;DHT22;17990;49.548;9.730;2023-09-19T00:37:25;15.80;99.90
16736;DHT22;17990;49.548;9.730;2023-09-19T00:39:52;15.80;99.90
16736;DHT22;17990;49.548;9.730;2023-09-19T00:42:19;15.70;99.90
16736;DHT22;17990;49.548;9.730;2023-09-19T00:44:46;15.70;99.90
16736;DHT22;17990;49.548;9.730;2023-09-19T00:47:16;15.70;99.90
16736;DHT22;17990;49.548;9.730;2023-09-19T00:49:43;15.70;99.90
16736;DHT22;17990;49.548;9.730;2023-09-19T00:52:12;15.80;99.90
16736;DHT22;17990;49.548;9.730;2023-09-19T00:54:39;15.80;99.90
16736;DHT22;17990;49.548;9.730;2023-09-19T00:57:06;15.90;99.90
16736;DHT22;17990;49.548;9.730;2023-09-19T00:59:34;15.90;99.90
16736;DHT22;17990;49.548;9.730;2023-09-19T01:02:02;15.90;99.90
16736;DHT22;17990;49.548;9.730;2023-09-19T01:04:29;15.90;99.90
16736;DHT22;17990;49.548;9.730;2023-09-19T01:06:56;15.90;99.90
16736;DHT22;17990;49.548;9.730;2023-09-19T01:09:25;15.90;99.90
16736;DHT22;17990;49.548;9.730;2023-09-19T01:11:58;16.00;99.90
16736;DHT22;17990;49.548;9.730;2023-09-19T01:14:34;16.00;99.90
16736;DHT22;17990;49.548;9.730;2023-09-19T01:17:04;15.90;99.90
16736;DHT22;17990;49.548;9.730;2023-09-19T01:22:43;16.10;99.90
16736;DHT22;17990;49.548;9.730;2023-09-19T01:28:31;16.30;99.90
16736;DHT22;17990;49.548;9.730;2023-09-19T01:31:03;16.40;99.90
16736;DHT22;17990;49.548;9.730;2023-09-19T01:33:54;16.50;99.90
16736;DHT22;17990;49.548;9.730;2023-09-19T01:36:28;16.50;99.90
16736;DHT22;17990;49.548;9.730;2023-09-19T01:38:57;16.60;99.90
16736;DHT22;17990;49.548;9.730;2023-09-19T01:41:29;16.50;99.90
16736;DHT22;17990;49.548;9.730;2023-09-19T01:44:00;16.40;99.90
16736;DHT22;17990;49.548;9.730;2023-09-19T01:46:34;16.40;99.90
16736;DHT22;17990;49.548;9.730;2023-09-19T01:49:15;16.30;99.90
16736;DHT22;17990;49.548;9.730;2023-09-19T01:51:53;16.30;99.90
16736;DHT22;17990;49.548;9.730;2023-09-19T01:54:26;16.20;99.90
16736;DHT22;17990;49.548;9.730;2023-09-19T01:56:59;16.20;99.90
16736;DHT22;17990;49.548;9.730;2023-09-19T01:59:35;16.10;99.90
16736;DHT22;17990;49.548;9.730;2023-09-19T02:02:05;16.10;99.90
16736;DHT22;17990;49.548;9.730;2023-09-19T02:04:32;16.00;99.90
16736;DHT22;17990;49.548;9.730;2023-09-19T02:07:00;16.10;99.90
16736;DHT22;17990;49.548;9.730;2023-09-19T02:09:28;16.00;99.90
16736;DHT22;17990;49.548;9.730;2023-09-19T02:11:54;16.10;99.90
16736;DHT22;17990;49.548;9.730;2023-09-19T02:14:22;16.10;99.90
16736;DHT22;17990;49.548;9.730;2023-09-19T02:16:49;16.10;99.90
16736;DHT22;17990;49.548;9.730;2023-09-19T02:19:17;16.10;99.90
16736;DHT22;17990;49.548;9.730;2023-09-19T02:21:44;16.20;99.90
16736;DHT22;17990;49.548;9.730;2023-09-19T02:24:10;16.20;99.90
16736;DHT22;17990;49.548;9.730;2023-09-19T02:26:38;16.20;99.90
16736;DHT22;17990;49.548;9.730;2023-09-19T02:29:04;16.20;99.90
16736;DHT22;17990;49.548;9.730;2023-09-19T02:31:31;16.20;99.90
16736;DHT22;17990;49.548;9.730;2023-09-19T02:33:58;16.20;99.90
16736;DHT22;17990;49.548;9.730;2023-09-19T02:36:26;16.30;99.90
16736;DHT22;17990;49.548;9.730;2023-09-19T02:38:53;16.20;99.90
16736;DHT22;17990;49.548;9.730;2023-09-19T02:41:20;16.20;99.90
16736;DHT22;17990;49.548;9.730;2023-09-19T02:43:47;16.20;99.90
16736;DHT22;17990;49.548;9.730;2023-09-19T02:46:14;16.30;99.90
16736;DHT22;17990;49.548;9.730;2023-09-19T02:48:42;16.20;99.90
16736;DHT22;17990;49.548;9.730;2023-09-19T02:51:09;16.30;99.90
16736;DHT22;17990;49.548;9.730;2023-09-19T02:53:37;16.30;99.90
16736;DHT22;17990;49.548;9.730;2023-09-19T02:56:04;16.40;99.90
16736;DHT22;17990;49.548;9.730;2023-09-19T02:58:31;16.50;99.90
16736;DHT22;17990;49.548;9.730;2023-09-19T03:01:08;16.60;99.90
16736;DHT22;17990;49.548;9.730;2023-09-19T03:03:34;16.60;99.90
16736;DHT22;17990;49.548;9.730;2023-09-19T03:06:03;16.70;99.90
16736;DHT22;17990;49.548;9.730;2023-09-19T03:08:30;16.80;99.90
16736;DHT22;17990;49.548;9.730;2023-09-19T03:10:58;16.80;99.90
16736;DHT22;17990;49.548;9.730;2023-09-19T03:13:26;16.80;99.90
16736;DHT22;17990;49.548;9.730;2023-09-19T03:15:54;16.90;99.90
16736;DHT22;17990;49.548;9.730;2023-09-19T03:18:22;16.90;99.90
16736;DHT22;17990;49.548;9.730;2023-09-19T03:20:52;17.00;99.90
16736;DHT22;17990;49.548;9.730;2023-09-19T03:23:20;17.00;99.90
16736;DHT22;17990;49.548;9.730;2023-09-19T03:25:47;17.00;99.90
16736;DHT22;17990;49.548;9.730;2023-09-19T03:28:15;17.00;99.90
16736;DHT22;17990;49.548;9.730;2023-09-19T03:30:42;17.10;99.90
16736;DHT22;17990;49.548;9.730;2023-09-19T03:33:09;17.10;99.90
16736;DHT22;17990;49.548;9.730;2023-09-19T03:35:37;17.10;99.90
16736;DHT22;17990;49.548;9.730;2023-09-19T03:38:05;17.20;99.90
16736;DHT22;17990;49.548;9.730;2023-09-19T03:40:32;17.20;99.90
16736;DHT22;17990;49.548;9.730;2023-09-19T03:43:00;17.20;99.90
16736;DHT22;17990;49.548;9.730;2023-09-19T03:45:28;17.20;99.90
16736;DHT22;17990;49.548;9.730;2023-09-19T03:47:55;17.20;99.90
16736;DHT22;17990;49.548;9.730;2023-09-19T03:50:22;17.20;99.90
16736;DHT22;17990;49.548;9.730;2023-09-19T03:52:49;17.20;99.90
16736;DHT22;17990;49.548;9.730;2023-09-19T03:55:16;17.20;99.90
16736;DHT22;17990;49.548;9.730;2023-09-19T03:57:48;17.10;99.90
16736;DHT22;17990;49.548;9.730;2023-09-19T04:00:15;17.10;99.90
16736;DHT22;17990;49.548;9.730;2023-09-19T04:02:47;17.10;99.90
16736;DHT22;17990;49.548;9.730;2023-09-19T04:05:14;17.10;99.90
16736;DHT22;17990;49.548;9.730;2023-09-19T04:07:41;17.00;99.90
16736;DHT22;17990;49.548;9.730;2023-09-19T04:10:09;17.00;99.90
16736;DHT22;17990;49.548;9.730;2023-09-19T04:12:37;17.00;99.90
16736;DHT22;17990;49.548;9.730;2023-09-19T04:15:04;17.00;99.90
16736;DHT22;17990;49.548;9.730;2023-09-19T04:17:31;17.00;99.90
16736;DHT22;17990;49.548;9.730;2023-09-19T04:20:00;17.00;99.90
16736;DHT22;17990;49.548;9.730;2023-09-19T04:22:27;17.00;99.90
16736;DHT22;17990;49.548;9.730;2023-09-19T04:24:53;17.00;99.90
16736;DHT22;17990;49.548;9.730;2023-09-19T04:27:20;17.00;99.90
16736;DHT22;17990;49.548;9.730;2023-09-19T04:29:47;17.00;99.90
16736;DHT22;17990;49.548;9.730;2023-09-19T04:32:18;17.00;99.90
16736;DHT22;17990;49.548;9.730;2023-09-19T04:34:45;17.00;99.90
16736;DHT22;17990;49.548;9.730;2023-09-19T04:37:17;16.90;99.90
16736;DHT22;17990;49.548;9.730;2023-09-19T04:39:44;16.90;99.90
16736;DHT22;17990;49.548;9.730;2023-09-19T04:42:12;16.80;99.90
16736;DHT22;17990;49.548;9.730;2023-09-19T04:44:40;16.60;99.90
16736;DHT22;17990;49.548;9.730;2023-09-19T04:47:08;16.60;99.90
16736;DHT22;17990;49.548;9.730;2023-09-19T04:49:34;16.50;99.90
16736;DHT22;17990;49.548;9.730;2023-09-19T04:52:01;16.50;99.90
16736;DHT22;17990;49.548;9.730;2023-09-19T04:54:29;16.40;99.90
16736;DHT22;17990;49.548;9.730;2023-09-19T04:56:56;16.40;99.90
16736;DHT22;17990;49.548;9.730;2023-09-19T04:59:22;16.30;99.90
16736;DHT22;17990;49.548;9.730;2023-09-19T05:01:49;16.20;99.90
16736;DHT22;17990;49.548;9.730;2023-09-19T05:04:16;16.20;99.90
16736;DHT22;17990;49.548;9.730;2023-09-19T05:06:43;16.10;99.90
16736;DHT22;17990;49.548;9.730;2023-09-19T05:09:10;16.10;99.90
16736;DHT22;17990;49.548;9.730;2023-09-19T05:11:38;16.10;99.90
16736;DHT22;17990;49.548;9.730;2023-09-19T05:14:05;16.10;99.90
16736;DHT22;17990;49.548;9.730;2023-09-19T05:16:32;16.10;99.90
16736;DHT22;17990;49.548;9.730;2023-09-19T05:18:59;16.20;99.90
16736;DHT22;17990;49.548;9.730;2023-09-19T05:21:27;16.20;99.90
16736;DHT22;17990;49.548;9.730;2023-09-19T05:23:55;16.30;99.90
16736;DHT22;17990;49.548;9.730;2023-09-19T05:26:22;16.40;99.90
16736;DHT22;17990;49.548;9.730;2023-09-19T05:28:50;16.40;99.90
16736;DHT22;17990;49.548;9.730;2023-09-19T05:31:18;16.50;99.90
16736;DHT22;17990;49.548;9.730;2023-09-19T05:33:45;16.50;99.90
16736;DHT22;17990;49.548;9.730;2023-09-19T05:36:11;16.60;99.90
16736;DHT22;17990;49.548;9.730;2023-09-19T05:38:38;16.60;99.90
16736;DHT22;17990;49.548;9.730;2023-09-19T05:41:07;16.70;99.90
16736;DHT22;17990;49.548;9.730;2023-09-19T05:43:34;16.70;99.90
16736;DHT22;17990;49.548;9.730;2023-09-19T05:46:04;16.80;99.90
16736;DHT22;17990;49.548;9.730;2023-09-19T05:48:31;16.90;99.90
16736;DHT22;17990;49.548;9.730;2023-09-19T05:50:58;17.00;99.90
16736;DHT22;17990;49.548;9.730;2023-09-19T05:53:26;17.10;99.90
16736;DHT22;17990;49.548;9.730;2023-09-19T05:55:54;17.20;99.90
16736;DHT22;17990;49.548;9.730;2023-09-19T05:58:21;17.20;99.90
16736;DHT22;17990;49.548;9.730;2023-09-19T06:00:48;17.30;99.90
16736;DHT22;17990;49.548;9.730;2023-09-19T06:03:16;17.50;99.90
16736;DHT22;17990;49.548;9.730;2023-09-19T06:05:44;17.50;99.90
16736;DHT22;17990;49.548;9.730;2023-09-19T06:08:11;17.70;99.90
16736;DHT22;17990;49.548;9.730;2023-09-19T06:10:38;17.80;99.90
16736;DHT22;17990;49.548;9.730;2023-09-19T06:13:05;18.00;99.90
16736;DHT22;17990;49.548;9.730;2023-09-19T06:15:35;18.10;99.90
16736;DHT22;17990;49.548;9.730;2023-09-19T06:18:02;18.10;99.90
16736;DHT22;17990;49.548;9.730;2023-09-19T06:20:31;18.30;99.90
16736;DHT22;17990;49.548;9.730;2023-09-19T06:22:58;18.40;99.90
16736;DHT22;17990;49.548;9.730;2023-09-19T06:25:27;18.60;99.90
16736;DHT22;17990;49.548;9.730;2023-09-19T06:27:54;18.90;99.90
16736;DHT22;17990;49.548;9.730;2023-09-19T06:30:23;19.10;99.90
16736;DHT22;17990;49.548;9.730;2023-09-19T06:32:55;19.40;99.90
16736;DHT22;17990;49.548;9.730;2023-09-19T06:35:22;19.60;99.90
16736;DHT22;17990;49.548;9.730;2023-09-19T06:37:50;19.90;99.90
16736;DHT22;17990;49.548;9.730;2023-09-19T06:40:18;20.60;99.90
16736;DHT22;17990;49.548;9.730;2023-09-19T06:42:46;21.30;99.90
16736;DHT22;17990;49.548;9.730;2023-09-19T06:45:14;22.60;99.90
16736;DHT22;17990;49.548;9.730;2023-09-19T06:47:44;22.50;99.90
16736;DHT22;17990;49.548;9.730;2023-09-19T06:50:11;21.80;99.90
16736;DHT22;17990;49.548;9.730;2023-09-19T06:52:40;21.10;99.90
16736;DHT22;17990;49.548;9.730;2023-09-19T06:55:08;20.80;99.90
16736;DHT22;17990;49.548;9.730;2023-09-19T06:57:37;20.30;99.90
16736;DHT22;17990;49.548;9.730;2023-09-19T07:00:07;20.20;99.90
16736;DHT22;17990;49.548;9.730;2023-09-19T07:02:38;20.20;99.90
16736;DHT22;17990;49.548;9.730;2023-09-19T07:05:06;21.40;99.90
16736;DHT22;17990;49.548;9.730;2023-09-19T07:07:33;22.90;99.90
16736;DHT22;17990;49.548;9.730;2023-09-19T07:10:00;23.00;99.90
16736;DHT22;17990;49.548;9.730;2023-09-19T07:12:28;22.20;99.90
16736;DHT22;17990;49.548;9.730;2023-09-19T07:14:55;22.30;99.90
16736;DHT22;17990;49.548;9.730;2023-09-19T07:17:22;22.40;99.90
16736;DHT22;17990;49.548;9.730;2023-09-19T07:19:49;22.70;99.90
16736;DHT22;17990;49.548;9.730;2023-09-19T07:22:16;23.90;99.90
16736;DHT22;17990;49.548;9.730;2023-09-19T07:24:42;23.90;99.90
16736;DHT22;17990;49.548;9.730;2023-09-19T07:27:09;23.20;99.90
16736;DHT22;17990;49.548;9.730;2023-09-19T07:29:37;23.40;99.90
16736;DHT22;17990;49.548;9.730;2023-09-19T07:32:05;23.70;99.90
16736;DHT22;17990;49.548;9.730;2023-09-19T07:34:32;23.90;99.90
16736;DHT22;17990;49.548;9.730;2023-09-19T07:36:59;25.60;99.90
16736;DHT22;17990;49.548;9.730;2023-09-19T07:39:26;26.20;99.90
16736;DHT22;17990;49.548;9.730;2023-09-19T07:41:52;26.00;99.90
16736;DHT22;17990;49.548;9.730;2023-09-19T07:44:19;25.50;99.90
16736;DHT22;17990;49.548;9.730;2023-09-19T07:46:48;25.30;99.90
16736;DHT22;17990;49.548;9.730;2023-09-19T07:49:16;25.00;99.90
16736;DHT22;17990;49.548;9.730;2023-09-19T07:51:44;24.90;99.90
16736;DHT22;17990;49.548;9.730;2023-09-19T07:54:12;24.70;99.90
16736;DHT22;17990;49.548;9.730;2023-09-19T07:56:40;24.00;99.90
16736;DHT22;17990;49.548;9.730;2023-09-19T07:59:06;23.90;99.90
16736;DHT22;17990;49.548;9.730;2023-09-19T08:01:33;23.90;99.90
16736;DHT22;17990;49.548;9.730;2023-09-19T08:04:02;23.60;99.90
16736;DHT22;17990;49.548;9.730;2023-09-19T08:06:29;23.50;99.90
16736;DHT22;17990;49.548;9.730;2023-09-19T08:08:56;23.60;99.90
16736;DHT22;17990;49.548;9.730;2023-09-19T08:11:26;23.60;99.90
16736;DHT22;17990;49.548;9.730;2023-09-19T08:13:56;23.60;99.90
16736;DHT22;17990;49.548;9.730;2023-09-19T08:16:23;23.50;99.90
16736;DHT22;17990;49.548;9.730;2023-09-19T08:18:50;23.50;99.90
16736;DHT22;17990;49.548;9.730;2023-09-19T08:21:22;23.60;99.90
16736;DHT22;17990;49.548;9.730;2023-09-19T08:23:49;23.50;99.90
16736;DHT22;17990;49.548;9.730;2023-09-19T08:26:16;23.50;99.90
16736;DHT22;17990;49.548;9.730;2023-09-19T08:28:43;23.40;99.90
16736;DHT22;17990;49.548;9.730;2023-09-19T08:31:10;23.30;99.90
16736;DHT22;17990;49.548;9.730;2023-09-19T08:33:37;23.10;99.90
16736;DHT22;17990;49.548;9.730;2023-09-19T08:36:06;23.00;99.90
16736;DHT22;17990;49.548;9.730;2023-09-19T08:38:36;23.30;99.90
16736;DHT22;17990;49.548;9.730;2023-09-19T08:41:06;23.40;99.90
16736;DHT22;17990;49.548;9.730;2023-09-19T08:43:33;23.00;99.90
16736;DHT22;17990;49.548;9.730;2023-09-19T08:46:06;22.90;99.90
16736;DHT22;17990;49.548;9.730;2023-09-19T08:48:35;23.30;99.90
16736;DHT22;17990;49.548;9.730;2023-09-19T08:51:07;23.30;99.90
16736;DHT22;17990;49.548;9.730;2023-09-19T08:53:41;23.20;99.90
16736;DHT22;17990;49.548;9.730;2023-09-19T08:56:12;23.10;99.90
16736;DHT22;17990;49.548;9.730;2023-09-19T08:58:46;23.00;99.90
16736;DHT22;17990;49.548;9.730;2023-09-19T09:01:16;22.90;99.90
16736;DHT22;17990;49.548;9.730;2023-09-19T09:03:46;22.90;99.90
16736;DHT22;17990;49.548;9.730;2023-09-19T09:06:14;23.30;99.90
16736;DHT22;17990;49.548;9.730;2023-09-19T09:08:44;23.30;99.90
16736;DHT22;17990;49.548;9.730;2023-09-19T09:11:11;23.40;99.90
16736;DHT22;17990;49.548;9.730;2023-09-19T09:13:38;23.00;99.90
16736;DHT22;17990;49.548;9.730;2023-09-19T09:16:07;22.80;99.90
16736;DHT22;17990;49.548;9.730;2023-09-19T09:18:34;22.70;99.90
16736;DHT22;17990;49.548;9.730;2023-09-19T09:21:00;22.70;99.90
16736;DHT22;17990;49.548;9.730;2023-09-19T09:23:27;22.60;99.90
16736;DHT22;17990;49.548;9.730;2023-09-19T09:25:57;22.60;99.90
16736;DHT22;17990;49.548;9.730;2023-09-19T09:28:27;22.50;99.90
16736;DHT22;17990;49.548;9.730;2023-09-19T09:30:54;22.50;99.90
16736;DHT22;17990;49.548;9.730;2023-09-19T09:33:22;22.10;99.90
16736;DHT22;17990;49.548;9.730;2023-09-19T09:35:50;22.20;99.90
16736;DHT22;17990;49.548;9.730;2023-09-19T09:38:22;22.30;99.90
16736;DHT22;17990;49.548;9.730;2023-09-19T09:40:52;22.40;99.90
16736;DHT22;17990;49.548;9.730;2023-09-19T09:43:33;22.30;99.90
16736;DHT22;17990;49.548;9.730;2023-09-19T09:46:10;22.20;99.90
16736;DHT22;17990;49.548;9.730;2023-09-19T09:49:10;22.00;99.90
16736;DHT22;17990;49.548;9.730;2023-09-19T09:51:44;21.70;99.90
16736;DHT22;17990;49.548;9.730;2023-09-19T09:54:15;21.60;99.90
16736;DHT22;17990;49.548;9.730;2023-09-19T09:57:00;21.80;99.90
16736;DHT22;17990;49.548;9.730;2023-09-19T09:59:50;22.10;99.90
16736;DHT22;17990;49.548;9.730;2023-09-19T10:02:20;21.90;99.90
16736;DHT22;17990;49.548;9.730;2023-09-19T10:04:51;21.80;99.90
16736;DHT22;17990;49.548;9.730;2023-09-19T10:07:39;22.00;99.90
16736;DHT22;17990;49.548;9.730;2023-09-19T10:10:08;22.10;99.90
16736;DHT22;17990;49.548;9.730;2023-09-19T10:12:55;22.30;99.90
16736;DHT22;17990;49.548;9.730;2023-09-19T10:15:32;21.90;99.90
16736;DHT22;17990;49.548;9.730;2023-09-19T10:17:59;21.60;99.90
16736;DHT22;17990;49.548;9.730;2023-09-19T10:20:28;21.30;99.90
16736;DHT22;17990;49.548;9.730;2023-09-19T10:23:06;21.20;99.90
16736;DHT22;17990;49.548;9.730;2023-09-19T10:25:37;21.10;99.90
16736;DHT22;17990;49.548;9.730;2023-09-19T10:28:06;21.10;99.90
16736;DHT22;17990;49.548;9.730;2023-09-19T10:30:41;21.20;99.90
16736;DHT22;17990;49.548;9.730;2023-09-19T10:33:11;21.40;99.90
16736;DHT22;17990;49.548;9.730;2023-09-19T10:35:39;21.50;99.90
16736;DHT22;17990;49.548;9.730;2023-09-19T10:38:10;21.60;99.90
16736;DHT22;17990;49.548;9.730;2023-09-19T10:40:38;21.90;99.90
16736;DHT22;17990;49.548;9.730;2023-09-19T10:43:13;22.20;99.90
16736;DHT22;17990;49.548;9.730;2023-09-19T10:45:47;22.50;99.90
16736;DHT22;17990;49.548;9.730;2023-09-19T10:48:15;22.60;99.90
16736;DHT22;17990;49.548;9.730;2023-09-19T10:50:48;22.70;99.90
16736;DHT22;17990;49.548;9.730;2023-09-19T10:53:16;22.90;99.90
16736;DHT22;17990;49.548;9.730;2023-09-19T10:55:50;22.90;99.90
16736;DHT22;17990;49.548;9.730;2023-09-19T10:58:29;22.70;99.90
16736;DHT22;17990;49.548;9.730;2023-09-19T11:01:01;22.60;99.90
16736;DHT22;17990;49.548;9.730;2023-09-19T11:03:37;22.30;99.90
16736;DHT22;17990;49.548;9.730;2023-09-19T11:06:11;22.20;99.90
16736;DHT22;17990;49.548;9.730;2023-09-19T11:09:06;22.10;99.90
16736;DHT22;17990;49.548;9.730;2023-09-19T11:11:48;22.20;99.90
16736;DHT22;17990;49.548;9.730;2023-09-19T11:14:42;22.30;99.90
16736;DHT22;17990;49.548;9.730;2023-09-19T11:20:33;22.20;99.90
16736;DHT22;17990;49.548;9.730;2023-09-19T11:23:20;22.50;99.90
16736;DHT22;17990;49.548;9.730;2023-09-19T11:25:51;22.70;99.90
16736;DHT22;17990;49.548;9.730;2023-09-19T11:28:30;23.10;99.90
16736;DHT22;17990;49.548;9.730;2023-09-19T11:30:57;23.20;99.90
16736;DHT22;17990;49.548;9.730;2023-09-19T11:33:25;23.20;99.90
16736;DHT22;17990;49.548;9.730;2023-09-19T11:36:02;23.20;99.90
16736;DHT22;17990;49.548;9.730;2023-09-19T11:38:57;23.00;99.90
16736;DHT22;17990;49.548;9.730;2023-09-19T11:41:40;23.00;99.90
16736;DHT22;17990;49.548;9.730;2023-09-19T11:44:31;22.80;99.90
16736;DHT22;17990;49.548;9.730;2023-09-19T11:47:00;22.50;99.90
16736;DHT22;17990;49.548;9.730;2023-09-19T11:49:29;22.50;99.90
16736;DHT22;17990;49.548;9.730;2023-09-19T11:51:59;22.70;99.90
16736;DHT22;17990;49.548;9.730;2023-09-19T11:54:31;22.80;99.90
16736;DHT22;17990;49.548;9.730;2023-09-19T11:56:58;23.10;99.90
16736;DHT22;17990;49.548;9.730;2023-09-19T11:59:27;23.20;99.90
16736;DHT22;17990;49.548;9.730;2023-09-19T12:01:56;23.40;99.90
16736;DHT22;17990;49.548;9.730;2023-09-19T12:04:37;23.60;99.90
16736;DHT22;17990;49.548;9.730;2023-09-19T12:07:07;23.60;99.90
16736;DHT22;17990;49.548;9.730;2023-09-19T12:09:38;23.40;99.90
16736;DHT22;17990;49.548;9.730;2023-09-19T12:14:33;23.60;99.90
16736;DHT22;17990;49.548;9.730;2023-09-19T12:17:00;23.70;99.90
16736;DHT22;17990;49.548;9.730;2023-09-19T12:19:29;23.70;99.90
16736;DHT22;17990;49.548;9.730;2023-09-19T12:21:57;23.60;99.90
16736;DHT22;17990;49.548;9.730;2023-09-19T12:24:27;23.50;99.90
16736;DHT22;17990;49.548;9.730;2023-09-19T12:27:00;23.50;99.90
16736;DHT22;17990;49.548;9.730;2023-09-19T12:29:30;23.70;99.90
16736;DHT22;17990;49.548;9.730;2023-09-19T12:31:58;23.90;99.90
16736;DHT22;17990;49.548;9.730;2023-09-19T12:34:30;23.80;99.90
16736;DHT22;17990;49.548;9.730;2023-09-19T12:37:07;23.50;99.90
16736;DHT22;17990;49.548;9.730;2023-09-19T12:39:39;23.20;99.90
16736;DHT22;17990;49.548;9.730;2023-09-19T12:42:08;23.10;99.90
16736;DHT22;17990;49.548;9.730;2023-09-19T12:44:36;22.80;99.90
16736;DHT22;17990;49.548;9.730;2023-09-19T12:47:14;22.90;99.90
16736;DHT22;17990;49.548;9.730;2023-09-19T12:50:11;23.00;99.90
16736;DHT22;17990;49.548;9.730;2023-09-19T12:52:43;23.10;99.90
16736;DHT22;17990;49.548;9.730;2023-09-19T12:55:26;23.50;99.90
16736;DHT22;17990;49.548;9.730;2023-09-19T12:57:58;23.60;99.90
16736;DHT22;17990;49.548;9.730;2023-09-19T13:00:32;23.70;99.90
16736;DHT22;17990;49.548;9.730;2023-09-19T13:03:14;23.60;99.90
16736;DHT22;17990;49.548;9.730;2023-09-19T13:05:48;23.60;99.90
16736;DHT22;17990;49.548;9.730;2023-09-19T13:08:25;23.70;99.90
16736;DHT22;17990;49.548;9.730;2023-09-19T13:11:04;23.90;99.90
16736;DHT22;17990;49.548;9.730;2023-09-19T13:13:36;23.80;99.90
16736;DHT22;17990;49.548;9.730;2023-09-19T13:16:03;23.70;99.90
16736;DHT22;17990;49.548;9.730;2023-09-19T13:18:41;23.70;99.90
16736;DHT22;17990;49.548;9.730;2023-09-19T13:21:11;23.90;99.90
16736;DHT22;17990;49.548;9.730;2023-09-19T13:23:41;23.70;99.90
16736;DHT22;17990;49.548;9.730;2023-09-19T13:26:10;23.70;99.90
16736;DHT22;17990;49.548;9.730;2023-09-19T13:28:38;23.80;99.90
16736;DHT22;17990;49.548;9.730;2023-09-19T13:31:05;23.70;99.90
16736;DHT22;17990;49.548;9.730;2023-09-19T13:33:33;23.70;99.90
16736;DHT22;17990;49.548;9.730;2023-09-19T13:36:01;23.60;99.90
16736;DHT22;17990;49.548;9.730;2023-09-19T13:38:27;23.60;99.90
16736;DHT22;17990;49.548;9.730;2023-09-19T13:40:54;23.80;99.90
16736;DHT22;17990;49.548;9.730;2023-09-19T13:43:23;23.90;99.90
16736;DHT22;17990;49.548;9.730;2023-09-19T13:45:50;23.80;99.90
16736;DHT22;17990;49.548;9.730;2023-09-19T13:48:17;23.70;99.90
16736;DHT22;17990;49.548;9.730;2023-09-19T13:50:48;23.80;99.90
16736;DHT22;17990;49.548;9.730;2023-09-19T13:53:15;23.80;99.90
16736;DHT22;17990;49.548;9.730;2023-09-19T13:55:42;23.90;99.90
16736;DHT22;17990;49.548;9.730;2023-09-19T13:58:09;23.80;99.90
16736;DHT22;17990;49.548;9.730;2023-09-19T14:00:38;23.90;99.90
16736;DHT22;17990;49.548;9.730;2023-09-19T14:03:05;23.90;99.90
16736;DHT22;17990;49.548;9.730;2023-09-19T14:05:32;23.90;99.90
16736;DHT22;17990;49.548;9.730;2023-09-19T14:07:59;23.70;99.90
16736;DHT22;17990;49.548;9.730;2023-09-19T14:10:26;23.40;99.90
16736;DHT22;17990;49.548;9.730;2023-09-19T14:12:55;23.50;99.90
16736;DHT22;17990;49.548;9.730;2023-09-19T14:15:23;23.60;99.90
16736;DHT22;17990;49.548;9.730;2023-09-19T14:17:56;23.60;99.90
16736;DHT22;17990;49.548;9.730;2023-09-19T14:20:25;23.70;99.90
16736;DHT22;17990;49.548;9.730;2023-09-19T14:22:53;23.80;99.90
16736;DHT22;17990;49.548;9.730;2023-09-19T14:25:20;23.70;99.90
16736;DHT22;17990;49.548;9.730;2023-09-19T14:27:48;23.60;99.90
16736;DHT22;17990;49.548;9.730;2023-09-19T14:30:15;23.60;99.90
16736;DHT22;17990;49.548;9.730;2023-09-19T14:32:41;23.50;99.90
16736;DHT22;17990;49.548;9.730;2023-09-19T14:35:10;23.30;99.90
16736;DHT22;17990;49.548;9.730;2023-09-19T14:37:39;23.10;99.90
16736;DHT22;17990;49.548;9.730;2023-09-19T14:40:07;23.00;99.90
16736;DHT22;17990;49.548;9.730;2023-09-19T14:42:35;22.90;99.90
16736;DHT22;17990;49.548;9.730;2023-09-19T14:45:04;22.90;99.90
16736;DHT22;17990;49.548;9.730;2023-09-19T14:47:31;23.00;99.90
16736;DHT22;17990;49.548;9.730;2023-09-19T14:49:59;23.10;99.90
16736;DHT22;17990;49.548;9.730;2023-09-19T14:52:27;23.10;99.90
16736;DHT22;17990;49.548;9.730;2023-09-19T14:54:54;23.10;99.90
16736;DHT22;17990;49.548;9.730;2023-09-19T14:57:21;23.10;99.90
16736;DHT22;17990;49.548;9.730;2023-09-19T14:59:50;23.10;99.90
16736;DHT22;17990;49.548;9.730;2023-09-19T15:02:16;23.10;99.90
16736;DHT22;17990;49.548;9.730;2023-09-19T15:04:43;23.10;99.90
16736;DHT22;17990;49.548;9.730;2023-09-19T15:07:12;23.10;99.90
16736;DHT22;17990;49.548;9.730;2023-09-19T15:09:41;23.00;99.90
16736;DHT22;17990;49.548;9.730;2023-09-19T15:12:09;23.00;99.90
16736;DHT22;17990;49.548;9.730;2023-09-19T15:14:39;23.10;99.90
16736;DHT22;17990;49.548;9.730;2023-09-19T15:17:06;23.10;99.90
16736;DHT22;17990;49.548;9.730;2023-09-19T15:19:33;23.10;99.90
16736;DHT22;17990;49.548;9.730;2023-09-19T15:22:00;22.90;99.90
16736;DHT22;17990;49.548;9.730;2023-09-19T15:24:27;22.80;99.90
16736;DHT22;17990;49.548;9.730;2023-09-19T15:26:55;22.70;99.90
16736;DHT22;17990;49.548;9.730;2023-09-19T15:29:22;22.60;99.90
16736;DHT22;17990;49.548;9.730;2023-09-19T15:31:48;22.50;99.90
16736;DHT22;17990;49.548;9.730;2023-09-19T15:34:15;22.50;99.90
16736;DHT22;17990;49.548;9.730;2023-09-19T15:36:42;22.40;99.90
16736;DHT22;17990;49.548;9.730;2023-09-19T15:39:09;22.30;99.90
16736;DHT22;17990;49.548;9.730;2023-09-19T15:41:38;22.10;99.90
16736;DHT22;17990;49.548;9.730;2023-09-19T15:44:12;22.10;99.90
16736;DHT22;17990;49.548;9.730;2023-09-19T15:46:39;22.10;99.90
16736;DHT22;17990;49.548;9.730;2023-09-19T15:49:06;22.10;99.90
16736;DHT22;17990;49.548;9.730;2023-09-19T15:51:35;22.00;99.90
16736;DHT22;17990;49.548;9.730;2023-09-19T15:54:07;22.00;99.90
16736;DHT22;17990;49.548;9.730;2023-09-19T15:56:37;21.90;99.90